sensor_id;sensor_type;location;lat;lon;timestamp;pressure;altitude;pressure_sealevel;temperature;humidity
71915;BME280;60387;49.994;14.660;2024-01-11T00:00:06;98957.25;;;-4.13;53.70
71915;BME280;60387;49.994;14.660;2024-01-11T00:02:40;98953.94;;;-4.15;54.36
71915;BME280;60387;49.994;14.660;2024-01-11T00:05:13;98940.25;;;-4.18;54.26
71915;BME280;60387;49.994;14.660;2024-01-11T00:07:47;98950.19;;;-4.20;53.84
71915;BME280;60387;49.994;14.660;2024-01-11T00:10:22;98948.94;;;-4.24;54.09
71915;BME280;60387;49.994;14.660;2024-01-11T00:12:56;98942.16;;;-4.27;53.70
71915;BME280;60387;49.994;14.660;2024-01-11T00:15:29;98945.16;;;-4.30;54.15
71915;BME280;60387;49.994;14.660;2024-01-11T00:18:02;98941.84;;;-4.32;54.60
71915;BME280;60387;49.994;14.660;2024-01-11T00:20:36;98919.19;;;-4.49;54.60
71915;BME280;60387;49.994;14.660;2024-01-11T00:23:09;98950.53;;;-4.38;53.78
71915;BME280;60387;49.994;14.660;2024-01-11T00:25:42;98951.50;;;-4.39;53.69
71915;BME280;60387;49.994;14.660;2024-01-11T00:28:16;98945.78;;;-4.42;53.92
71915;BME280;60387;49.994;14.660;2024-01-11T00:30:49;98942.66;;;-4.46;53.90
71915;BME280;60387;49.994;14.660;2024-01-11T00:33:22;98942.81;;;-4.47;53.71
71915;BME280;60387;49.994;14.660;2024-01-11T00:35:55;98951.75;;;-4.48;54.22
71915;BME280;60387;49.994;14.660;2024-01-11T00:38:32;98932.94;;;-4.53;54.97
71915;BME280;60387;49.994;14.660;2024-01-11T00:41:05;98940.25;;;-4.55;54.56
71915;BME280;60387;49.994;14.660;2024-01-11T00:43:38;98943.03;;;-4.57;53.68
71915;BME280;60387;49.994;14.660;2024-01-11T00:46:12;98933.66;;;-4.59;55.14
71915;BME280;60387;49.994;14.660;2024-01-11T00:48:45;98943.78;;;-4.63;54.95
71915;BME280;60387;49.994;14.660;2024-01-11T00:51:18;98935.16;;;-4.65;54.52
71915;BME280;60387;49.994;14.660;2024-01-11T00:53:52;98936.53;;;-4.69;54.67
71915;BME280;60387;49.994;14.660;2024-01-11T00:56:25;98927.97;;;-4.71;54.21
71915;BME280;60387;49.994;14.660;2024-01-11T00:58:58;98919.91;;;-4.77;54.75
71915;BME280;60387;49.994;14.660;2024-01-11T01:01:31;98917.63;;;-4.80;54.16
71915;BME280;60387;49.994;14.660;2024-01-11T01:04:05;98916.97;;;-4.82;54.64
71915;BME280;60387;49.994;14.660;2024-01-11T01:06:38;98914.22;;;-4.89;55.35
71915;BME280;60387;49.994;14.660;2024-01-11T01:09:11;98926.59;;;-4.89;55.49
71915;BME280;60387;49.994;14.660;2024-01-11T01:11:44;98924.97;;;-4.90;54.66
71915;BME280;60387;49.994;14.660;2024-01-11T01:14:18;98913.06;;;-4.94;55.16
71915;BME280;60387;49.994;14.660;2024-01-11T01:16:51;98930.41;;;-4.92;55.19
71915;BME280;60387;49.994;14.660;2024-01-11T01:19:24;98919.19;;;-4.94;54.54
71915;BME280;60387;49.994;14.660;2024-01-11T01:21:57;98922.19;;;-4.97;54.70
71915;BME280;60387;49.994;14.660;2024-01-11T01:24:31;98918.25;;;-5.01;55.48
71915;BME280;60387;49.994;14.660;2024-01-11T01:27:04;98917.44;;;-5.01;55.29
71915;BME280;60387;49.994;14.660;2024-01-11T01:29:37;98911.69;;;-5.05;55.76
71915;BME280;60387;49.994;14.660;2024-01-11T01:32:11;98912.84;;;-5.07;55.13
71915;BME280;60387;49.994;14.660;2024-01-11T01:34:44;98901.00;;;-5.11;55.10
71915;BME280;60387;49.994;14.660;2024-01-11T01:37:17;98902.81;;;-5.12;54.99
71915;BME280;60387;49.994;14.660;2024-01-11T01:39:51;98901.00;;;-5.11;55.13
71915;BME280;60387;49.994;14.660;2024-01-11T01:42:24;98911.09;;;-5.15;54.73
71915;BME280;60387;49.994;14.660;2024-01-11T01:44:57;98904.13;;;-5.16;54.50
71915;BME280;60387;49.994;14.660;2024-01-11T01:47:31;98903.84;;;-5.21;55.18
71915;BME280;60387;49.994;14.660;2024-01-11T01:50:05;98900.56;;;-5.23;54.74
71915;BME280;60387;49.994;14.660;2024-01-11T01:52:40;98897.59;;;-5.28;54.69
71915;BME280;60387;49.994;14.660;2024-01-11T01:55:15;98905.16;;;-5.25;55.48
71915;BME280;60387;49.994;14.660;2024-01-11T01:57:50;98909.66;;;-5.25;55.54
71915;BME280;60387;49.994;14.660;2024-01-11T02:00:24;98903.53;;;-5.26;54.65
71915;BME280;60387;49.994;14.660;2024-01-11T02:02:58;98901.88;;;-5.27;54.94
71915;BME280;60387;49.994;14.660;2024-01-11T02:05:32;98900.25;;;-5.28;55.01
71915;BME280;60387;49.994;14.660;2024-01-11T02:08:08;98890.69;;;-5.29;54.98
71915;BME280;60387;49.994;14.660;2024-01-11T02:10:42;98896.97;;;-5.30;54.96
71915;BME280;60387;49.994;14.660;2024-01-11T02:13:16;98867.00;;;-5.45;54.79
71915;BME280;60387;49.994;14.660;2024-01-11T02:15:49;98882.44;;;-5.34;55.64
71915;BME280;60387;49.994;14.660;2024-01-11T02:18:23;98876.06;;;-5.39;55.86
71915;BME280;60387;49.994;14.660;2024-01-11T02:20:56;98876.88;;;-5.39;55.87
71915;BME280;60387;49.994;14.660;2024-01-11T02:23:30;98880.16;;;-5.37;55.94
71915;BME280;60387;49.994;14.660;2024-01-11T02:26:04;98879.53;;;-5.39;55.63
71915;BME280;60387;49.994;14.660;2024-01-11T02:28:37;98876.06;;;-5.39;55.61
71915;BME280;60387;49.994;14.660;2024-01-11T02:31:12;98866.00;;;-5.44;56.40
71915;BME280;60387;49.994;14.660;2024-01-11T02:33:47;98871.13;;;-5.42;55.87
71915;BME280;60387;49.994;14.660;2024-01-11T02:36:21;98865.38;;;-5.46;54.94
71915;BME280;60387;49.994;14.660;2024-01-11T02:38:55;98866.22;;;-5.45;55.09
71915;BME280;60387;49.994;14.660;2024-01-11T02:41:28;98871.94;;;-5.42;55.52
71915;BME280;60387;49.994;14.660;2024-01-11T02:44:02;98876.56;;;-5.44;55.53
71915;BME280;60387;49.994;14.660;2024-01-11T02:46:35;98872.78;;;-5.41;55.56
71915;BME280;60387;49.994;14.660;2024-01-11T02:49:09;98872.78;;;-5.41;54.78
71915;BME280;60387;49.994;14.660;2024-01-11T02:51:42;98864.53;;;-5.46;55.31
71915;BME280;60387;49.994;14.660;2024-01-11T02:54:16;98871.81;;;-5.48;54.99
71915;BME280;60387;49.994;14.660;2024-01-11T02:56:49;98866.53;;;-5.48;54.93
71915;BME280;60387;49.994;14.660;2024-01-11T02:59:23;98867.69;;;-5.51;55.63
71915;BME280;60387;49.994;14.660;2024-01-11T03:01:56;98868.22;;;-5.55;55.48
71915;BME280;60387;49.994;14.660;2024-01-11T03:04:29;98873.31;;;-5.54;55.02
71915;BME280;60387;49.994;14.660;2024-01-11T03:07:03;98878.59;;;-5.54;55.75
71915;BME280;60387;49.994;14.660;2024-01-11T03:09:36;98882.25;;;-5.55;54.72
71915;BME280;60387;49.994;14.660;2024-01-11T03:12:09;98885.69;;;-5.54;54.90
71915;BME280;60387;49.994;14.660;2024-01-11T03:14:43;98883.25;;;-5.56;55.24
71915;BME280;60387;49.994;14.660;2024-01-11T03:17:16;98878.28;;;-5.59;54.79
71915;BME280;60387;49.994;14.660;2024-01-11T03:19:49;98877.63;;;-5.61;54.71
71915;BME280;60387;49.994;14.660;2024-01-11T03:22:22;98877.66;;;-5.69;55.21
71915;BME280;60387;49.994;14.660;2024-01-11T03:24:56;98889.22;;;-5.70;54.57
71915;BME280;60387;49.994;14.660;2024-01-11T03:27:29;98886.09;;;-5.73;55.90
71915;BME280;60387;49.994;14.660;2024-01-11T03:30:03;98887.44;;;-5.77;55.66
71915;BME280;60387;49.994;14.660;2024-01-11T03:32:36;98888.00;;;-5.82;56.29
71915;BME280;60387;49.994;14.660;2024-01-11T03:35:10;98883.72;;;-5.83;55.92
71915;BME280;60387;49.994;14.660;2024-01-11T03:37:43;98871.03;;;-5.87;55.24
71915;BME280;60387;49.994;14.660;2024-01-11T03:40:17;98861.19;;;-6.01;55.85
71915;BME280;60387;49.994;14.660;2024-01-11T03:42:50;98877.13;;;-5.95;55.50
71915;BME280;60387;49.994;14.660;2024-01-11T03:45:23;98866.28;;;-6.00;55.31
71915;BME280;60387;49.994;14.660;2024-01-11T03:47:57;98867.59;;;-6.04;55.60
71915;BME280;60387;49.994;14.660;2024-01-11T03:50:30;98884.59;;;-6.06;55.42
71915;BME280;60387;49.994;14.660;2024-01-11T03:53:03;98890.84;;;-6.07;55.70
71915;BME280;60387;49.994;14.660;2024-01-11T03:55:37;98891.69;;;-6.07;55.44
71915;BME280;60387;49.994;14.660;2024-01-11T03:58:10;98885.75;;;-6.08;55.70
71915;BME280;60387;49.994;14.660;2024-01-11T04:00:43;98892.69;;;-6.07;55.10
71915;BME280;60387;49.994;14.660;2024-01-11T04:03:17;98901.41;;;-6.07;55.11
71915;BME280;60387;49.994;14.660;2024-01-11T04:05:50;98889.38;;;-6.10;55.29
71915;BME280;60387;49.994;14.660;2024-01-11T04:08:23;98894.97;;;-6.13;55.81
71915;BME280;60387;49.994;14.660;2024-01-11T04:10:56;98893.69;;;-6.16;55.71
71915;BME280;60387;49.994;14.660;2024-01-11T04:13:30;98895.34;;;-6.15;55.44
71915;BME280;60387;49.994;14.660;2024-01-11T04:16:04;98901.91;;;-6.12;55.85
71915;BME280;60387;49.994;14.660;2024-01-11T04:18:38;98902.91;;;-6.13;55.59
71915;BME280;60387;49.994;14.660;2024-01-11T04:23:56;98894.34;;;-6.14;55.80
71915;BME280;60387;49.994;14.660;2024-01-11T04:26:29;98897.97;;;-6.15;55.42
71915;BME280;60387;49.994;14.660;2024-01-11T04:29:03;98908.66;;;-6.17;55.18
71915;BME280;60387;49.994;14.660;2024-01-11T04:31:36;98897.31;;;-6.17;55.19
71915;BME280;60387;49.994;14.660;2024-01-11T04:34:09;98894.34;;;-6.14;56.25
71915;BME280;60387;49.994;14.660;2024-01-11T04:36:42;98887.94;;;-6.20;56.26
71915;BME280;60387;49.994;14.660;2024-01-11T04:39:16;98919.06;;;-6.15;56.10
71915;BME280;60387;49.994;14.660;2024-01-11T04:41:49;98907.69;;;-6.16;56.54
71915;BME280;60387;49.994;14.660;2024-01-11T04:44:22;98909.31;;;-6.15;56.38
71915;BME280;60387;49.994;14.660;2024-01-11T04:46:56;98906.88;;;-6.16;56.17
71915;BME280;60387;49.994;14.660;2024-01-11T04:49:29;98892.06;;;-6.17;56.56
71915;BME280;60387;49.994;14.660;2024-01-11T04:52:02;98879.03;;;-6.27;57.42
71915;BME280;60387;49.994;14.660;2024-01-11T04:54:36;98878.88;;;-6.25;57.48
71915;BME280;60387;49.994;14.660;2024-01-11T04:57:09;98859.25;;;-6.23;57.88
71915;BME280;60387;49.994;14.660;2024-01-11T04:59:42;98840.16;;;-6.25;58.54
71915;BME280;60387;49.994;14.660;2024-01-11T05:02:15;98848.22;;;-6.26;58.63
71915;BME280;60387;49.994;14.660;2024-01-11T05:04:49;98882.97;;;-6.31;58.21
71915;BME280;60387;49.994;14.660;2024-01-11T05:07:22;98878.69;;;-6.24;57.48
71915;BME280;60387;49.994;14.660;2024-01-11T05:09:55;98863.38;;;-6.20;58.13
71915;BME280;60387;49.994;14.660;2024-01-11T05:12:29;98877.53;;;-6.21;57.94
71915;BME280;60387;49.994;14.660;2024-01-11T05:15:03;98879.19;;;-6.20;57.88
71915;BME280;60387;49.994;14.660;2024-01-11T05:17:36;98869.28;;;-6.18;57.71
71915;BME280;60387;49.994;14.660;2024-01-11T05:20:10;98867.50;;;-6.18;57.60
71915;BME280;60387;49.994;14.660;2024-01-11T05:22:43;98872.91;;;-6.19;56.41
71915;BME280;60387;49.994;14.660;2024-01-11T05:25:17;98867.00;;;-6.21;56.75
71915;BME280;60387;49.994;14.660;2024-01-11T05:27:50;98872.63;;;-6.24;56.70
71915;BME280;60387;49.994;14.660;2024-01-11T05:30:23;98870.28;;;-6.19;56.54
71915;BME280;60387;49.994;14.660;2024-01-11T05:32:57;98872.91;;;-6.19;56.75
71915;BME280;60387;49.994;14.660;2024-01-11T05:35:30;98878.38;;;-6.21;56.80
71915;BME280;60387;49.994;14.660;2024-01-11T05:38:03;98881.81;;;-6.20;56.17
71915;BME280;60387;49.994;14.660;2024-01-11T05:40:36;98880.34;;;-6.23;56.39
71915;BME280;60387;49.994;14.660;2024-01-11T05:43:10;98888.44;;;-6.24;57.18
71915;BME280;60387;49.994;14.660;2024-01-11T05:45:43;98872.63;;;-6.24;57.38
71915;BME280;60387;49.994;14.660;2024-01-11T05:48:17;98885.47;;;-6.29;58.16
71915;BME280;60387;49.994;14.660;2024-01-11T05:50:50;98877.41;;;-6.28;58.19
71915;BME280;60387;49.994;14.660;2024-01-11T05:53:23;98877.22;;;-6.26;58.18
71915;BME280;60387;49.994;14.660;2024-01-11T05:55:57;98885.94;;;-6.26;58.04
71915;BME280;60387;49.994;14.660;2024-01-11T05:58:30;98889.44;;;-6.25;57.82
71915;BME280;60387;49.994;14.660;2024-01-11T06:01:03;98880.19;;;-6.29;57.45
71915;BME280;60387;49.994;14.660;2024-01-11T06:03:37;98891.88;;;-6.24;57.41
71915;BME280;60387;49.994;14.660;2024-01-11T06:06:10;98895.50;;;-6.25;56.64
71915;BME280;60387;49.994;14.660;2024-01-11T06:08:43;98897.34;;;-6.25;57.09
71915;BME280;60387;49.994;14.660;2024-01-11T06:11:17;98897.50;;;-6.27;57.75
71915;BME280;60387;49.994;14.660;2024-01-11T06:13:50;98895.00;;;-6.28;57.74
71915;BME280;60387;49.994;14.660;2024-01-11T06:16:23;98894.03;;;-6.27;57.48
71915;BME280;60387;49.994;14.660;2024-01-11T06:18:57;98902.59;;;-6.25;57.45
71915;BME280;60387;49.994;14.660;2024-01-11T06:21:31;98881.84;;;-6.28;57.93
71915;BME280;60387;49.994;14.660;2024-01-11T06:24:07;98881.84;;;-6.28;57.95
71915;BME280;60387;49.994;14.660;2024-01-11T06:26:40;98883.66;;;-6.29;58.28
71915;BME280;60387;49.994;14.660;2024-01-11T06:29:13;98885.47;;;-6.29;58.21
71915;BME280;60387;49.994;14.660;2024-01-11T06:31:46;98881.84;;;-6.28;59.18
71915;BME280;60387;49.994;14.660;2024-01-11T06:34:20;98882.19;;;-6.31;58.53
71915;BME280;60387;49.994;14.660;2024-01-11T06:36:54;98884.31;;;-6.35;58.12
71915;BME280;60387;49.994;14.660;2024-01-11T06:39:27;98889.25;;;-6.32;57.52
71915;BME280;60387;49.994;14.660;2024-01-11T06:42:00;98903.25;;;-6.31;57.11
71915;BME280;60387;49.994;14.660;2024-01-11T06:44:34;98903.25;;;-6.31;57.69
71915;BME280;60387;49.994;14.660;2024-01-11T06:47:07;98897.16;;;-6.32;57.13
71915;BME280;60387;49.994;14.660;2024-01-11T06:49:41;98908.88;;;-6.34;57.05
71915;BME280;60387;49.994;14.660;2024-01-11T06:52:14;98903.75;;;-6.36;57.19
71915;BME280;60387;49.994;14.660;2024-01-11T06:54:47;98898.66;;;-6.37;58.05
71915;BME280;60387;49.994;14.660;2024-01-11T06:57:20;98890.94;;;-6.39;57.61
71915;BME280;60387;49.994;14.660;2024-01-11T06:59:54;98895.84;;;-6.36;57.37
71915;BME280;60387;49.994;14.660;2024-01-11T07:02:27;98893.38;;;-6.37;58.30
71915;BME280;60387;49.994;14.660;2024-01-11T07:05:01;98905.25;;;-6.33;58.34
71915;BME280;60387;49.994;14.660;2024-01-11T07:07:34;98894.72;;;-6.33;58.28
71915;BME280;60387;49.994;14.660;2024-01-11T07:10:07;98904.25;;;-6.32;58.49
71915;BME280;60387;49.994;14.660;2024-01-11T07:12:41;98901.44;;;-6.31;58.77
71915;BME280;60387;49.994;14.660;2024-01-11T07:15:14;98889.09;;;-6.30;58.58
71915;BME280;60387;49.994;14.660;2024-01-11T07:17:47;98879.03;;;-6.27;58.92
71915;BME280;60387;49.994;14.660;2024-01-11T07:20:20;98868.63;;;-6.20;60.27
71915;BME280;60387;49.994;14.660;2024-01-11T07:22:54;98870.78;;;-6.16;59.64
71915;BME280;60387;49.994;14.660;2024-01-11T07:25:27;98875.72;;;-6.13;58.80
71915;BME280;60387;49.994;14.660;2024-01-11T07:28:01;98874.53;;;-6.11;58.16
71915;BME280;60387;49.994;14.660;2024-01-11T07:30:34;98870.41;;;-6.05;58.60
71915;BME280;60387;49.994;14.660;2024-01-11T07:33:08;98869.94;;;-6.01;58.19
71915;BME280;60387;49.994;14.660;2024-01-11T07:35:41;98873.69;;;-5.95;57.68
71915;BME280;60387;49.994;14.660;2024-01-11T07:38:14;98878.09;;;-5.88;57.62
71915;BME280;60387;49.994;14.660;2024-01-11T07:40:48;98881.22;;;-5.84;57.56
71915;BME280;60387;49.994;14.660;2024-01-11T07:43:21;98879.88;;;-5.80;57.49
71915;BME280;60387;49.994;14.660;2024-01-11T07:45:55;98891.56;;;-5.75;57.25
71915;BME280;60387;49.994;14.660;2024-01-11T07:48:28;98895.16;;;-5.68;57.04
71915;BME280;60387;49.994;14.660;2024-01-11T07:51:01;98876.63;;;-5.60;58.12
71915;BME280;60387;49.994;14.660;2024-01-11T07:53:35;98881.22;;;-5.46;58.33
71915;BME280;60387;49.994;14.660;2024-01-11T07:56:08;98857.19;;;-5.28;58.85
71915;BME280;60387;49.994;14.660;2024-01-11T07:58:41;98854.91;;;-5.09;59.22
71915;BME280;60387;49.994;14.660;2024-01-11T08:01:15;98850.16;;;-4.91;59.07
71915;BME280;60387;49.994;14.660;2024-01-11T08:03:49;98862.72;;;-4.70;59.12
71915;BME280;60387;49.994;14.660;2024-01-11T08:06:22;98854.47;;;-4.53;57.83
71915;BME280;60387;49.994;14.660;2024-01-11T08:08:55;98857.91;;;-4.30;58.37
71915;BME280;60387;49.994;14.660;2024-01-11T08:11:29;98850.53;;;-4.05;58.76
71915;BME280;60387;49.994;14.660;2024-01-11T08:14:02;98831.53;;;-3.80;59.22
71915;BME280;60387;49.994;14.660;2024-01-11T08:16:35;98848.75;;;-3.55;58.48
71915;BME280;60387;49.994;14.660;2024-01-11T08:19:08;98870.94;;;-3.27;58.74
71915;BME280;60387;49.994;14.660;2024-01-11T08:21:42;98867.00;;;-2.96;58.44
71915;BME280;60387;49.994;14.660;2024-01-11T08:24:15;98858.16;;;-2.61;58.97
71915;BME280;60387;49.994;14.660;2024-01-11T08:26:48;98834.19;;;-2.25;58.24
71915;BME280;60387;49.994;14.660;2024-01-11T08:29:22;98829.25;;;-1.94;58.04
71915;BME280;60387;49.994;14.660;2024-01-11T08:31:55;98839.22;;;-1.69;57.15
71915;BME280;60387;49.994;14.660;2024-01-11T08:34:28;98856.94;;;-1.35;57.99
71915;BME280;60387;49.994;14.660;2024-01-11T08:37:01;98850.09;;;-1.04;57.68
71915;BME280;60387;49.994;14.660;2024-01-11T08:39:35;98849.16;;;-0.70;57.00
71915;BME280;60387;49.994;14.660;2024-01-11T08:42:08;98844.47;;;-0.42;56.81
71915;BME280;60387;49.994;14.660;2024-01-11T08:44:44;98826.44;;;-0.08;56.36
71915;BME280;60387;49.994;14.660;2024-01-11T08:47:18;98826.41;;;0.18;55.88
71915;BME280;60387;49.994;14.660;2024-01-11T08:49:51;98818.09;;;0.45;56.54
71915;BME280;60387;49.994;14.660;2024-01-11T08:52:25;98808.59;;;0.69;55.48
71915;BME280;60387;49.994;14.660;2024-01-11T08:54:58;98800.47;;;0.88;55.19
71915;BME280;60387;49.994;14.660;2024-01-11T08:57:31;98802.66;;;1.04;55.18
71915;BME280;60387;49.994;14.660;2024-01-11T09:00:05;98812.84;;;1.14;54.33
71915;BME280;60387;49.994;14.660;2024-01-11T09:02:38;98815.66;;;1.25;53.79
71915;BME280;60387;49.994;14.660;2024-01-11T09:05:14;98812.09;;;1.31;53.51
71915;BME280;60387;49.994;14.660;2024-01-11T09:07:47;98815.22;;;1.28;52.63
71915;BME280;60387;49.994;14.660;2024-01-11T09:10:21;98816.25;;;1.27;52.91
71915;BME280;60387;49.994;14.660;2024-01-11T09:12:54;98816.00;;;1.35;52.92
71915;BME280;60387;49.994;14.660;2024-01-11T09:15:27;98827.41;;;1.49;53.79
71915;BME280;60387;49.994;14.660;2024-01-11T09:18:00;98834.28;;;1.63;53.31
71915;BME280;60387;49.994;14.660;2024-01-11T09:20:35;98844.78;;;1.82;53.19
71915;BME280;60387;49.994;14.660;2024-01-11T09:23:08;98853.88;;;1.99;53.85
71915;BME280;60387;49.994;14.660;2024-01-11T09:25:42;98838.63;;;2.24;53.43
71915;BME280;60387;49.994;14.660;2024-01-11T09:28:15;98846.66;;;2.42;53.15
71915;BME280;60387;49.994;14.660;2024-01-11T09:30:48;98848.16;;;2.56;53.08
71915;BME280;60387;49.994;14.660;2024-01-11T09:33:21;98843.94;;;2.67;51.92
71915;BME280;60387;49.994;14.660;2024-01-11T09:35:55;98842.50;;;2.82;52.47
71915;BME280;60387;49.994;14.660;2024-01-11T09:38:28;98855.28;;;2.98;51.57
71915;BME280;60387;49.994;14.660;2024-01-11T09:41:09;98866.25;;;3.08;51.25
71915;BME280;60387;49.994;14.660;2024-01-11T09:43:45;98857.47;;;3.19;51.74
71915;BME280;60387;49.994;14.660;2024-01-11T09:46:18;98832.00;;;3.28;51.21
71915;BME280;60387;49.994;14.660;2024-01-11T09:48:53;98821.13;;;3.41;51.69
71915;BME280;60387;49.994;14.660;2024-01-11T09:51:29;98827.91;;;3.55;50.41
71915;BME280;60387;49.994;14.660;2024-01-11T09:54:03;98841.31;;;3.55;49.64
71915;BME280;60387;49.994;14.660;2024-01-11T09:56:37;98844.31;;;3.47;49.42
71915;BME280;60387;49.994;14.660;2024-01-11T09:59:11;98849.41;;;3.37;49.87
71915;BME280;60387;49.994;14.660;2024-01-11T10:01:45;98853.88;;;3.25;49.83
71915;BME280;60387;49.994;14.660;2024-01-11T10:04:18;98848.25;;;3.15;49.35
71915;BME280;60387;49.994;14.660;2024-01-11T10:06:53;98837.88;;;3.07;49.90
71915;BME280;60387;49.994;14.660;2024-01-11T10:09:27;98827.00;;;3.02;50.22
71915;BME280;60387;49.994;14.660;2024-01-11T10:12:00;98813.28;;;2.99;50.24
71915;BME280;60387;49.994;14.660;2024-01-11T10:14:33;98825.75;;;3.04;50.32
71915;BME280;60387;49.994;14.660;2024-01-11T10:17:07;98815.03;;;3.04;49.93
71915;BME280;60387;49.994;14.660;2024-01-11T10:19:40;98830.41;;;3.09;50.35
71915;BME280;60387;49.994;14.660;2024-01-11T10:22:13;98811.84;;;3.14;50.46
71915;BME280;60387;49.994;14.660;2024-01-11T10:24:47;98807.44;;;3.19;50.82
71915;BME280;60387;49.994;14.660;2024-01-11T10:27:20;98811.03;;;3.25;50.38
71915;BME280;60387;49.994;14.660;2024-01-11T10:29:53;98810.59;;;3.28;50.05
71915;BME280;60387;49.994;14.660;2024-01-11T10:32:28;98797.56;;;3.20;50.06
71915;BME280;60387;49.994;14.660;2024-01-11T10:35:02;98809.81;;;3.39;49.86
71915;BME280;60387;49.994;14.660;2024-01-11T10:37:36;98823.00;;;3.52;50.31
71915;BME280;60387;49.994;14.660;2024-01-11T10:40:10;98828.16;;;3.65;49.75
71915;BME280;60387;49.994;14.660;2024-01-11T10:42:45;98824.78;;;3.69;49.53
71915;BME280;60387;49.994;14.660;2024-01-11T10:45:20;98830.25;;;3.74;50.10
71915;BME280;60387;49.994;14.660;2024-01-11T10:47:56;98827.94;;;3.78;49.53
71915;BME280;60387;49.994;14.660;2024-01-11T10:50:31;98813.03;;;3.82;49.33
71915;BME280;60387;49.994;14.660;2024-01-11T10:53:43;98816.88;;;3.86;49.89
71915;BME280;60387;49.994;14.660;2024-01-11T10:56:15;98816.88;;;3.86;48.94
71915;BME280;60387;49.994;14.660;2024-01-11T10:58:49;98825.16;;;3.84;48.97
71915;BME280;60387;49.994;14.660;2024-01-11T11:01:23;98832.03;;;3.80;49.06
71915;BME280;60387;49.994;14.660;2024-01-11T11:03:59;98823.75;;;3.82;49.23
71915;BME280;60387;49.994;14.660;2024-01-11T11:06:34;98820.16;;;3.76;48.57
71915;BME280;60387;49.994;14.660;2024-01-11T11:09:09;98817.34;;;3.71;48.82
71915;BME280;60387;49.994;14.660;2024-01-11T11:11:45;98795.69;;;3.73;49.12
71915;BME280;60387;49.994;14.660;2024-01-11T11:14:19;98788.72;;;3.83;48.97
71915;BME280;60387;49.994;14.660;2024-01-11T11:16:54;98808.03;;;4.20;48.99
71915;BME280;60387;49.994;14.660;2024-01-11T11:19:27;98798.41;;;4.58;48.41
71915;BME280;60387;49.994;14.660;2024-01-11T11:22:04;98789.78;;;4.96;47.61
71915;BME280;60387;49.994;14.660;2024-01-11T11:24:37;98795.25;;;5.29;47.81
71915;BME280;60387;49.994;14.660;2024-01-11T11:27:13;98802.13;;;5.53;47.72
71915;BME280;60387;49.994;14.660;2024-01-11T11:29:47;98784.53;;;5.78;47.27
71915;BME280;60387;49.994;14.660;2024-01-11T11:32:34;98778.28;;;6.06;47.44
71915;BME280;60387;49.994;14.660;2024-01-11T11:35:08;98783.72;;;6.27;47.42
71915;BME280;60387;49.994;14.660;2024-01-11T11:37:42;98775.91;;;6.47;46.36
71915;BME280;60387;49.994;14.660;2024-01-11T11:40:15;98770.28;;;6.48;44.73
71915;BME280;60387;49.994;14.660;2024-01-11T11:42:48;98764.78;;;6.38;45.14
71915;BME280;60387;49.994;14.660;2024-01-11T11:45:25;98749.25;;;6.24;45.38
71915;BME280;60387;49.994;14.660;2024-01-11T11:47:59;98729.97;;;6.11;45.93
71915;BME280;60387;49.994;14.660;2024-01-11T11:50:34;98723.81;;;5.94;45.56
71915;BME280;60387;49.994;14.660;2024-01-11T11:53:10;98727.38;;;5.83;45.13
71915;BME280;60387;49.994;14.660;2024-01-11T11:55:44;98713.22;;;5.71;45.62
71915;BME280;60387;49.994;14.660;2024-01-11T11:58:17;98714.13;;;5.60;46.23
71915;BME280;60387;49.994;14.660;2024-01-11T12:00:52;98720.38;;;5.49;46.56
71915;BME280;60387;49.994;14.660;2024-01-11T12:03:29;98721.03;;;5.39;46.44
71915;BME280;60387;49.994;14.660;2024-01-11T12:06:04;98717.59;;;5.27;44.62
71915;BME280;60387;49.994;14.660;2024-01-11T12:08:41;98711.38;;;5.10;45.35
71915;BME280;60387;49.994;14.660;2024-01-11T12:11:20;98704.72;;;4.96;45.91
71915;BME280;60387;49.994;14.660;2024-01-11T12:13:53;98698.66;;;4.89;46.60
71915;BME280;60387;49.994;14.660;2024-01-11T12:16:27;98699.63;;;4.83;46.68
71915;BME280;60387;49.994;14.660;2024-01-11T12:19:00;98700.34;;;4.79;46.73
71915;BME280;60387;49.994;14.660;2024-01-11T12:21:33;98694.41;;;4.77;46.70
71915;BME280;60387;49.994;14.660;2024-01-11T12:24:07;98675.72;;;4.82;46.09
71915;BME280;60387;49.994;14.660;2024-01-11T12:26:40;98670.03;;;4.95;45.70
71915;BME280;60387;49.994;14.660;2024-01-11T12:29:13;98664.03;;;5.04;45.71
71915;BME280;60387;49.994;14.660;2024-01-11T12:31:47;98675.19;;;5.13;45.49
71915;BME280;60387;49.994;14.660;2024-01-11T12:34:21;98676.19;;;5.23;46.33
71915;BME280;60387;49.994;14.660;2024-01-11T12:36:54;98666.41;;;5.34;45.66
71915;BME280;60387;49.994;14.660;2024-01-11T12:39:27;98656.06;;;5.42;45.37
71915;BME280;60387;49.994;14.660;2024-01-11T12:42:00;98673.16;;;5.53;45.28
71915;BME280;60387;49.994;14.660;2024-01-11T12:44:34;98675.25;;;5.67;45.74
71915;BME280;60387;49.994;14.660;2024-01-11T12:47:07;98668.09;;;5.89;45.58
71915;BME280;60387;49.994;14.660;2024-01-11T12:49:44;98662.53;;;6.17;46.03
71915;BME280;60387;49.994;14.660;2024-01-11T12:52:18;98670.97;;;6.47;45.67
71915;BME280;60387;49.994;14.660;2024-01-11T12:54:52;98655.59;;;6.69;43.66
71915;BME280;60387;49.994;14.660;2024-01-11T12:57:26;98645.25;;;6.82;44.61
71915;BME280;60387;49.994;14.660;2024-01-11T13:00:12;98641.00;;;6.91;43.62
71915;BME280;60387;49.994;14.660;2024-01-11T13:02:48;98645.91;;;6.94;44.05
71915;BME280;60387;49.994;14.660;2024-01-11T13:05:21;98634.84;;;6.91;43.97
71915;BME280;60387;49.994;14.660;2024-01-11T13:07:54;98645.53;;;6.86;44.56
71915;BME280;60387;49.994;14.660;2024-01-11T13:10:28;98651.16;;;6.79;43.52
71915;BME280;60387;49.994;14.660;2024-01-11T13:13:02;98653.13;;;6.62;44.11
71915;BME280;60387;49.994;14.660;2024-01-11T13:15:35;98657.00;;;6.50;44.47
71915;BME280;60387;49.994;14.660;2024-01-11T13:18:09;98656.84;;;6.35;43.00
71915;BME280;60387;49.994;14.660;2024-01-11T13:20:42;98658.53;;;6.20;43.68
71915;BME280;60387;49.994;14.660;2024-01-11T13:23:17;98659.41;;;6.04;43.05
71915;BME280;60387;49.994;14.660;2024-01-11T13:25:50;98655.13;;;5.86;44.08
71915;BME280;60387;49.994;14.660;2024-01-11T13:28:24;98656.03;;;5.75;44.70